Time;durP1;ratioP1;P1;durP2;ratioP2;P2;SDS_P1;SDS_P2;PMS_P1;PMS_P2;Temp;Humidity;BMP_temperature;BMP_pressure;BME280_temperature;BME280_humidity;BME280_pressure;Samples;Min_cycle;Max_cycle;Signal;HPM_P1;HPM_P2
2024/03/14 05:00:55;;;;;;;13.60;6.83;;;10.40;99.90;;;;;;5604077;23;20244;-73
2024/03/14 05:03:22;;;;;;;23.93;11.83;;;10.40;99.90;;;;;;4895147;29;20466;-74
2024/03/14 05:05:48;;;;;;;15.88;8.85;;;10.40;99.90;;;;;;4897510;29;20493;-72
2024/03/14 05:08:15;;;;;;;23.05;10.20;;;10.40;99.90;;;;;;4915507;29;20253;-73
2024/03/14 05:10:43;;;;;;;13.70;9.32;;;10.40;99.90;;;;;;4910414;29;20237;-73
2024/03/14 05:13:10;;;;;;;21.95;10.77;;;10.50;99.90;;;;;;4879278;29;20302;-72
2024/03/14 05:15:37;;;;;;;23.20;9.97;;;10.40;99.90;;;;;;4881208;29;20325;-73
2024/03/14 05:18:05;;;;;;;24.15;12.32;;;10.40;99.90;;;;;;4880273;29;20467;-73
2024/03/14 05:20:32;;;;;;;16.05;9.32;;;10.40;99.90;;;;;;4881067;29;20262;-73
2024/03/14 05:22:59;;;;;;;17.27;9.65;;;10.40;99.90;;;;;;4880557;29;20216;-73
2024/03/14 05:25:26;;;;;;;21.20;9.50;;;10.40;99.90;;;;;;4880419;29;20211;-73
2024/03/14 05:27:53;;;;;;;17.75;9.98;;;10.40;99.90;;;;;;4873524;29;20491;-72
2024/03/14 05:30:23;;;;;;;17.92;9.48;;;10.40;99.90;;;;;;4876857;29;20215;-72
2024/03/14 05:32:51;;;;;;;19.38;9.93;;;10.40;99.90;;;;;;4879393;29;20624;-72
2024/03/14 05:35:18;;;;;;;20.93;11.50;;;10.40;99.90;;;;;;4878496;29;20238;-72
2024/03/14 05:37:45;;;;;;;19.08;9.15;;;10.40;99.90;;;;;;4878337;29;20531;-72
2024/03/14 05:40:12;;;;;;;15.48;7.75;;;10.30;99.90;;;;;;4873407;29;20317;-72
2024/03/14 05:42:39;;;;;;;21.88;10.63;;;10.20;99.90;;;;;;4879284;29;20215;-71
2024/03/14 05:45:07;;;;;;;16.83;10.10;;;10.20;99.90;;;;;;4877657;29;20218;-72
2024/03/14 05:47:35;;;;;;;18.48;8.27;;;10.20;99.90;;;;;;4877877;29;20491;-71
2024/03/14 05:50:06;;;;;;;14.50;8.25;;;10.10;99.90;;;;;;4881809;29;20518;-72
2024/03/14 05:52:33;;;;;;;21.38;9.75;;;10.10;99.90;;;;;;4882106;29;20218;-71
2024/03/14 05:55:01;;;;;;;17.65;9.68;;;10.10;99.90;;;;;;4880627;29;20208;-73
2024/03/14 05:57:28;;;;;;;17.33;8.98;;;10.20;99.90;;;;;;4880246;29;20219;-72
2024/03/14 05:59:55;;;;;;;20.17;10.27;;;10.10;99.90;;;;;;4880018;29;20267;-71
2024/03/14 06:02:22;;;;;;;14.77;8.40;;;10.20;99.90;;;;;;4879653;29;20262;-72
2024/03/14 06:04:49;;;;;;;14.75;9.00;;;10.20;99.90;;;;;;4878810;29;20494;-72
2024/03/14 06:07:16;;;;;;;23.70;10.40;;;10.20;99.90;;;;;;4893614;29;20226;-71
2024/03/14 06:09:43;;;;;;;19.10;10.50;;;10.20;99.90;;;;;;4878994;29;20211;-72
2024/03/14 06:12:10;;;;;;;16.65;8.77;;;10.20;99.90;;;;;;4880394;29;20773;-71
2024/03/14 06:14:38;;;;;;;12.32;7.68;;;10.20;99.90;;;;;;4877496;29;20208;-72
2024/03/14 06:17:06;;;;;;;16.73;9.00;;;10.20;99.90;;;;;;4880890;29;20218;-72
2024/03/14 06:19:32;;;;;;;16.13;10.48;;;10.20;99.90;;;;;;4874364;29;20678;-72
2024/03/14 06:21:59;;;;;;;15.00;7.30;;;10.20;99.90;;;;;;4878138;29;20227;-73
2024/03/14 06:24:26;;;;;;;23.63;8.30;;;10.20;99.90;;;;;;4878618;29;20551;-72
2024/03/14 06:26:53;;;;;;;12.23;8.30;;;10.30;99.90;;;;;;4879644;29;20482;-72
2024/03/14 06:29:22;;;;;;;14.03;8.63;;;10.30;99.90;;;;;;4881489;29;20235;-74
2024/03/14 06:31:49;;;;;;;17.45;8.40;;;10.30;99.90;;;;;;4880409;29;20503;-72
2024/03/14 06:34:16;;;;;;;14.60;9.63;;;10.40;99.90;;;;;;4878353;29;20629;-72
2024/03/14 06:36:43;;;;;;;14.80;8.70;;;10.40;99.90;;;;;;4878399;29;20590;-73
2024/03/14 06:39:11;;;;;;;12.73;8.40;;;10.50;99.90;;;;;;4878557;29;20499;-72
2024/03/14 06:41:38;;;;;;;12.10;7.35;;;10.60;99.90;;;;;;4878860;29;20508;-72
2024/03/14 06:44:06;;;;;;;14.20;8.87;;;10.70;99.90;;;;;;4877783;29;20219;-72
2024/03/14 06:46:33;;;;;;;17.50;9.27;;;10.70;99.90;;;;;;4878652;29;20877;-72
2024/03/14 06:49:02;;;;;;;12.25;7.43;;;10.70;99.90;;;;;;4879348;29;20517;-72
2024/03/14 06:51:29;;;;;;;20.13;9.00;;;10.60;99.90;;;;;;4878614;29;20230;-72
2024/03/14 06:53:56;;;;;;;10.70;6.68;;;10.60;99.90;;;;;;4870538;29;20307;-71
2024/03/14 06:56:23;;;;;;;12.63;7.32;;;10.50;99.90;;;;;;4877681;29;20222;-72
2024/03/14 06:58:50;;;;;;;17.90;10.20;;;10.50;99.90;;;;;;4879185;29;20213;-71
2024/03/14 07:01:17;;;;;;;14.10;9.00;;;10.50;99.90;;;;;;4881046;29;20499;-72
2024/03/14 07:03:45;;;;;;;12.95;8.75;;;10.50;99.90;;;;;;4878019;29;20894;-72
2024/03/14 07:06:14;;;;;;;13.23;7.00;;;10.50;99.90;;;;;;4885456;29;20465;-72
2024/03/14 07:08:42;;;;;;;14.63;8.33;;;10.50;99.90;;;;;;4881577;29;20491;-72
2024/03/14 07:11:11;;;;;;;11.40;4.70;;;10.50;99.90;;;;;;4885633;29;20860;-72
2024/03/14 07:13:38;;;;;;;15.70;7.53;;;10.50;99.90;;;;;;4882279;29;20487;-73
2024/03/14 07:16:09;;;;;;;17.60;8.50;;;10.50;99.90;;;;;;4893258;29;20474;-72
2024/03/14 07:18:36;;;;;;;14.67;8.40;;;10.50;99.90;;;;;;4872411;29;20483;-72
2024/03/14 07:21:04;;;;;;;15.43;6.32;;;10.60;99.90;;;;;;4879327;29;20506;-73
2024/03/14 07:23:33;;;;;;;14.80;8.43;;;10.60;99.90;;;;;;4877936;29;20586;-73
2024/03/14 07:25:59;;;;;;;9.97;6.93;;;10.60;99.90;;;;;;4878969;29;20954;-73
2024/03/14 07:28:27;;;;;;;14.00;8.67;;;10.60;99.90;;;;;;4874375;29;20487;-72
2024/03/14 07:30:55;;;;;;;14.23;9.07;;;10.60;99.90;;;;;;4876981;29;20560;-72
2024/03/14 07:33:22;;;;;;;21.53;10.90;;;10.70;99.90;;;;;;4875679;29;20475;-72
2024/03/14 07:35:50;;;;;;;7.93;7.13;;;10.70;99.90;;;;;;4877529;29;20486;-73
2024/03/14 07:38:17;;;;;;;17.90;12.90;;;10.70;99.90;;;;;;4875705;29;20499;-73
2024/03/14 07:40:44;;;;;;;27.13;13.80;;;10.80;99.90;;;;;;4876879;29;20503;-72
2024/03/14 07:43:12;;;;;;;23.07;13.57;;;10.90;99.90;;;;;;4877426;29;20477;-73
2024/03/14 07:45:39;;;;;;;17.53;11.03;;;10.90;99.90;;;;;;4896346;29;20499;-72
2024/03/14 07:48:10;;;;;;;17.60;11.00;;;11.00;99.90;;;;;;4880826;29;20915;-72
2024/03/14 07:50:36;;;;;;;15.53;8.33;;;11.00;99.90;;;;;;4882031;29;21102;-72
2024/03/14 07:53:07;;;;;;;12.37;7.50;;;11.00;99.90;;;;;;4880239;29;20479;-72
2024/03/14 07:55:37;;;;;;;10.87;6.90;;;11.00;99.90;;;;;;4879855;29;20476;-72
2024/03/14 07:58:04;;;;;;;13.60;7.50;;;11.00;99.90;;;;;;4875153;29;20546;-74
2024/03/14 08:00:31;;;;;;;9.43;7.60;;;11.00;99.90;;;;;;4877155;29;20609;-73
2024/03/14 08:02:58;;;;;;;15.73;10.43;;;11.10;99.90;;;;;;4877316;29;20472;-73
2024/03/14 08:05:31;;;;;;;14.40;8.57;;;11.10;99.90;;;;;;4877437;29;20478;-73
2024/03/14 08:07:59;;;;;;;12.23;8.10;;;11.10;99.90;;;;;;4879146;29;20513;-73
2024/03/14 08:10:28;;;;;;;9.70;6.73;;;11.10;99.90;;;;;;4878325;29;20852;-73
2024/03/14 08:12:57;;;;;;;9.67;6.60;;;11.20;99.90;;;;;;4877857;29;20482;-73
2024/03/14 08:15:30;;;;;;;11.17;6.70;;;11.20;99.90;;;;;;4875065;29;20930;-73
2024/03/14 08:17:59;;;;;;;8.53;7.43;;;11.20;99.90;;;;;;4878417;29;20483;-73
2024/03/14 08:20:26;;;;;;;13.33;7.07;;;11.40;99.90;;;;;;4877317;29;20498;-73
2024/03/14 08:22:54;;;;;;;14.13;7.40;;;11.40;99.90;;;;;;4872390;29;20567;-73
2024/03/14 08:25:24;;;;;;;13.30;9.00;;;11.50;99.90;;;;;;4878726;29;20881;-72
2024/03/14 08:27:51;;;;;;;13.40;8.23;;;11.70;99.90;;;;;;4878718;29;20880;-72
2024/03/14 08:30:19;;;;;;;15.30;10.30;;;11.80;99.90;;;;;;4873705;29;21006;-72
2024/03/14 08:32:46;;;;;;;15.60;7.90;;;11.80;99.90;;;;;;4875354;29;20474;-72
2024/03/14 08:35:14;;;;;;;12.80;7.80;;;11.90;99.90;;;;;;4878185;29;21023;-73
2024/03/14 08:37:43;;;;;;;10.70;7.13;;;12.00;99.90;;;;;;4879968;29;20471;-73
2024/03/14 08:40:10;;;;;;;10.57;6.73;;;12.20;99.90;;;;;;4877128;29;20475;-74
2024/03/14 08:42:39;;;;;;;12.57;7.07;;;12.30;99.90;;;;;;4881639;29;20954;-73
2024/03/14 08:45:09;;;;;;;10.10;6.67;;;12.40;99.90;;;;;;4875295;29;20479;-72
2024/03/14 08:47:36;;;;;;;8.17;6.83;;;12.50;99.90;;;;;;4873857;29;20494;-73
2024/03/14 08:50:05;;;;;;;8.53;6.13;;;12.50;99.90;;;;;;4872147;29;20510;-73
2024/03/14 08:52:32;;;;;;;7.77;6.03;;;12.50;99.90;;;;;;4876110;29;20486;-73
2024/03/14 08:55:00;;;;;;;7.57;6.37;;;12.50;99.90;;;;;;4891423;29;20483;-74
2024/03/14 08:57:27;;;;;;;9.90;6.27;;;12.40;99.90;;;;;;4877785;29;20467;-73
2024/03/14 08:59:54;;;;;;;8.40;6.30;;;12.50;99.90;;;;;;4889826;29;20839;-73
2024/03/14 09:02:23;;;;;;;11.63;6.40;;;12.40;99.90;;;;;;4867877;29;20583;-72
2024/03/14 09:04:51;;;;;;;9.50;5.93;;;12.40;99.90;;;;;;4870878;29;20499;-70
2024/03/14 09:07:18;;;;;;;8.43;5.87;;;12.50;99.90;;;;;;4876218;29;20902;-70
2024/03/14 09:09:45;;;;;;;5.80;5.23;;;12.60;99.90;;;;;;4874670;29;20498;-70
2024/03/14 09:12:17;;;;;;;6.37;5.70;;;12.70;99.90;;;;;;4881085;29;20490;-72
2024/03/14 09:14:44;;;;;;;12.30;6.23;;;12.80;99.90;;;;;;4878363;29;21045;-72
2024/03/14 09:17:12;;;;;;;13.87;6.90;;;13.00;99.90;;;;;;4879512;29;20549;-73
2024/03/14 09:19:39;;;;;;;6.10;5.40;;;13.10;99.90;;;;;;4878018;29;20468;-72
2024/03/14 09:22:06;;;;;;;8.03;5.97;;;13.20;99.90;;;;;;4874261;29;20570;-74
2024/03/14 09:24:33;;;;;;;12.67;7.27;;;13.40;99.90;;;;;;4881094;29;20482;-73
2024/03/14 09:27:02;;;;;;;7.10;6.40;;;13.50;99.90;;;;;;4880040;29;20593;-73
2024/03/14 09:29:29;;;;;;;5.73;5.17;;;13.70;99.90;;;;;;4877962;29;20501;-73
2024/03/14 09:31:57;;;;;;;15.90;9.93;;;13.80;99.90;;;;;;4877973;29;20490;-73
2024/03/14 09:34:24;;;;;;;15.00;9.03;;;13.90;99.90;;;;;;4878067;29;20810;-73
2024/03/14 09:36:53;;;;;;;10.90;7.87;;;14.00;99.90;;;;;;4877911;29;20793;-74
2024/03/14 09:39:21;;;;;;;9.07;7.53;;;14.10;99.90;;;;;;4873564;29;20856;-73
2024/03/14 09:41:48;;;;;;;6.77;5.47;;;14.20;99.90;;;;;;4874853;29;20491;-73
2024/03/14 09:44:15;;;;;;;4.93;4.53;;;14.30;99.90;;;;;;4876937;29;20994;-73
2024/03/14 09:46:44;;;;;;;8.00;6.07;;;14.40;99.90;;;;;;4876145;29;20467;-73
2024/03/14 09:49:12;;;;;;;5.47;4.93;;;14.50;99.90;;;;;;4875200;29;20488;-72
2024/03/14 09:51:39;;;;;;;7.23;4.90;;;14.60;99.90;;;;;;4880311;29;20499;-73
2024/03/14 09:54:07;;;;;;;4.70;4.30;;;14.60;99.90;;;;;;4879130;29;20484;-73
2024/03/14 09:56:34;;;;;;;5.47;4.13;;;14.60;99.90;;;;;;4879933;29;20476;-71
2024/03/14 09:59:01;;;;;;;7.80;5.00;;;14.50;99.90;;;;;;4885929;29;20484;-71
2024/03/14 10:01:28;;;;;;;6.60;5.50;;;14.60;99.90;;;;;;4878758;29;20499;-72
2024/03/14 10:03:57;;;;;;;9.30;4.83;;;14.60;99.90;;;;;;4877080;29;20486;-72
2024/03/14 10:06:24;;;;;;;3.17;2.97;;;14.70;99.90;;;;;;4874618;29;20476;-73
2024/03/14 10:08:51;;;;;;;6.53;4.80;;;14.80;99.90;;;;;;4874663;29;20471;-72
2024/03/14 10:11:20;;;;;;;5.70;4.13;;;14.80;99.90;;;;;;4878766;29;20554;-72
2024/03/14 10:13:47;;;;;;;7.70;6.60;;;14.90;99.90;;;;;;4879480;29;20482;-72
2024/03/14 10:16:15;;;;;;;5.10;4.70;;;15.00;99.90;;;;;;4878316;29;21248;-73
2024/03/14 10:18:42;;;;;;;5.70;5.00;;;15.00;99.90;;;;;;4890037;29;20527;-73
2024/03/14 10:21:09;;;;;;;6.80;4.17;;;15.00;99.90;;;;;;4873680;29;20924;-72
2024/03/14 10:23:36;;;;;;;6.40;4.40;;;15.00;99.90;;;;;;4876553;29;20493;-72
2024/03/14 10:26:03;;;;;;;6.20;4.90;;;14.90;99.90;;;;;;4877271;29;20471;-72
2024/03/14 10:28:31;;;;;;;5.43;4.20;;;14.80;99.90;;;;;;4892535;29;20475;-72
2024/03/14 10:31:02;;;;;;;5.17;4.77;;;14.80;99.90;;;;;;4892716;29;20590;-73
2024/03/14 10:33:29;;;;;;;5.47;4.20;;;14.70;99.90;;;;;;4888696;29;20498;-72
2024/03/14 10:35:56;;;;;;;5.07;4.57;;;14.60;99.90;;;;;;4875154;29;20482;-73
2024/03/14 10:38:25;;;;;;;5.43;4.53;;;14.60;99.90;;;;;;4893516;29;20846;-74
2024/03/14 10:40:53;;;;;;;5.47;4.97;;;14.70;99.90;;;;;;4889074;29;20483;-73
2024/03/14 10:43:20;;;;;;;5.57;3.60;;;14.70;99.90;;;;;;4876992;29;20792;-72
2024/03/14 10:45:52;;;;;;;4.63;4.33;;;14.80;99.90;;;;;;4875054;29;21066;-72
2024/03/14 10:48:22;;;;;;;5.63;5.13;;;15.00;99.90;;;;;;4878826;29;20482;-73
2024/03/14 10:50:51;;;;;;;7.10;4.90;;;15.10;99.90;;;;;;4874970;29;20574;-73
2024/03/14 10:53:19;;;;;;;4.10;3.77;;;15.20;99.90;;;;;;4873582;29;20551;-72
2024/03/14 10:56:40;;;;;;;4.20;3.80;;;15.40;99.90;;;;;;5139737;27;21132;-75
2024/03/14 10:59:08;;;;;;;6.60;5.30;;;15.50;99.90;;;;;;5091652;28;20468;-75
2024/03/14 11:01:35;;;;;;;4.40;4.10;;;15.50;99.90;;;;;;5095753;28;21035;-76
2024/03/14 11:04:02;;;;;;;4.60;4.20;;;15.50;99.90;;;;;;5091054;28;20847;-75
2024/03/14 11:06:29;;;;;;;3.60;3.30;;;15.50;99.90;;;;;;5072068;28;20472;-75
2024/03/14 11:08:56;;;;;;;4.47;3.50;;;15.60;99.90;;;;;;5080398;28;20478;-75
2024/03/14 11:11:24;;;;;;;5.57;3.33;;;15.60;99.90;;;;;;5080801;28;20482;-74
2024/03/14 11:13:51;;;;;;;4.97;3.17;;;15.60;99.90;;;;;;5076356;28;20479;-74
2024/03/14 11:16:18;;;;;;;4.03;3.60;;;;;;;;;;5068769;28;20946;-74
2024/03/14 11:18:45;;;;;;;3.50;3.23;;;15.70;99.90;;;;;;5090489;28;20502;-74
2024/03/14 11:21:12;;;;;;;3.50;3.30;;;15.70;99.90;;;;;;5071820;28;20542;-74
2024/03/14 11:23:40;;;;;;;3.40;3.20;;;15.70;99.90;;;;;;5079198;28;20524;-75
2024/03/14 11:26:07;;;;;;;2.97;2.80;;;15.70;99.90;;;;;;5077897;28;20455;-74
2024/03/14 11:28:36;;;;;;;3.23;3.13;;;15.70;99.90;;;;;;5099008;28;20458;-74
2024/03/14 11:31:03;;;;;;;4.83;3.47;;;15.90;99.90;;;;;;5079265;28;20461;-71
2024/03/14 11:33:32;;;;;;;4.10;3.77;;;16.20;99.90;;;;;;5078327;28;20879;-72
2024/03/14 11:35:59;;;;;;;3.23;3.03;;;16.30;99.90;;;;;;5067003;28;20539;-75
2024/03/14 11:38:28;;;;;;;6.10;5.20;;;16.30;99.90;;;;;;5077770;28;20500;-73
2024/03/14 11:40:55;;;;;;;2.87;2.77;;;16.40;99.90;;;;;;5075653;28;20951;-71
2024/03/14 11:43:22;;;;;;;4.40;3.37;;;16.40;99.90;;;;;;5073566;28;20503;-73
2024/03/14 11:45:56;;;;;;;4.30;4.00;;;16.50;99.90;;;;;;5092234;28;20545;-71
2024/03/14 11:48:24;;;;;;;2.40;2.20;;;16.40;99.90;;;;;;5068902;28;20532;-70
2024/03/14 11:50:52;;;;;;;2.17;2.07;;;16.50;99.90;;;;;;5073834;28;20505;-71
2024/03/14 11:53:21;;;;;;;4.07;2.80;;;16.50;99.90;;;;;;5086661;28;20482;-72
2024/03/14 11:55:48;;;;;;;3.37;2.13;;;16.60;99.90;;;;;;5093591;28;20489;-72
2024/03/14 11:58:15;;;;;;;2.17;2.07;;;16.60;99.90;;;;;;5070128;28;20543;-73
2024/03/14 12:00:42;;;;;;;2.53;2.37;;;16.70;99.90;;;;;;5064705;28;20463;-73
2024/03/14 12:03:11;;;;;;;2.13;2.03;;;16.70;99.90;;;;;;5067702;28;20577;-73
2024/03/14 12:05:44;;;;;;;2.23;2.03;;;16.80;99.90;;;;;;5063314;28;20513;-74
2024/03/14 12:08:12;;;;;;;3.53;3.23;;;16.80;99.90;;;;;;5051591;28;20565;-73
2024/03/14 12:10:39;;;;;;;4.70;4.27;;;16.90;99.90;;;;;;5072484;28;20520;-74
2024/03/14 12:13:12;;;;;;;3.73;3.43;;;16.90;99.90;;;;;;5050208;28;20507;-73
2024/03/14 12:15:39;;;;;;;6.27;4.10;;;16.90;99.90;;;;;;5054184;28;20486;-73
2024/03/14 12:18:06;;;;;;;3.43;3.10;;;16.80;99.90;;;;;;5059061;28;20843;-72
2024/03/14 12:20:33;;;;;;;9.27;6.20;;;16.80;99.90;;;;;;5059253;28;20974;-73
2024/03/14 12:23:00;;;;;;;4.23;3.83;;;16.90;99.90;;;;;;5057516;28;20498;-74
2024/03/14 12:25:27;;;;;;;4.43;2.83;;;16.90;99.90;;;;;;5057852;28;20499;-73
2024/03/14 12:27:55;;;;;;;2.33;2.23;;;16.80;99.90;;;;;;5049994;28;20571;-74
2024/03/14 12:30:22;;;;;;;3.20;2.77;;;16.80;99.90;;;;;;5052546;28;20466;-72
2024/03/14 12:32:56;;;;;;;2.70;2.50;;;17.00;99.90;;;;;;5056309;28;20548;-71
2024/03/14 12:35:23;;;;;;;5.37;4.97;;;17.10;99.90;;;;;;5073054;28;20486;-73
2024/03/14 12:37:52;;;;;;;2.93;2.73;;;17.20;99.90;;;;;;5071720;28;20482;-72
2024/03/14 12:40:21;;;;;;;3.30;2.90;;;17.30;99.90;;;;;;5057516;28;20465;-73
2024/03/14 12:42:48;;;;;;;3.60;2.90;;;17.30;99.90;;;;;;5065303;28;20467;-73
2024/03/14 12:45:15;;;;;;;9.90;6.90;;;17.30;99.90;;;;;;5059672;28;21027;-72
2024/03/14 12:47:43;;;;;;;5.00;4.70;;;17.30;99.90;;;;;;5056787;28;20495;-71
2024/03/14 12:50:20;;;;;;;5.90;5.40;;;17.20;99.90;;;;;;5058661;28;20946;-73
2024/03/14 12:52:51;;;;;;;4.20;4.00;;;17.10;99.90;;;;;;5058014;28;20454;-72
2024/03/14 12:55:18;;;;;;;4.63;4.33;;;17.20;99.90;;;;;;5051887;28;20590;-72
2024/03/14 12:57:45;;;;;;;5.00;3.70;;;17.20;99.90;;;;;;5058302;28;20490;-72
2024/03/14 13:00:17;;;;;;;3.03;2.87;;;17.20;99.90;;;;;;5047491;28;20507;-72
2024/03/14 13:02:49;;;;;;;3.93;3.67;;;17.10;99.90;;;;;;5066051;28;20990;-72
2024/03/14 13:05:18;;;;;;;5.20;4.70;;;17.20;99.90;;;;;;5060187;28;20471;-71
2024/03/14 13:08:05;;;;;;;2.40;2.30;;;17.20;99.90;;;;;;5064917;28;20471;-71
2024/03/14 13:10:35;;;;;;;2.23;2.13;;;17.10;99.90;;;;;;5050994;28;20483;-71
2024/03/14 13:13:03;;;;;;;2.00;2.00;;;17.10;99.90;;;;;;5045765;28;21001;-71
2024/03/14 13:15:31;;;;;;;2.47;2.37;;;17.20;99.90;;;;;;5047516;28;20570;-74
2024/03/14 13:17:58;;;;;;;2.37;2.27;;;17.30;99.90;;;;;;5060122;28;20480;-77
2024/03/14 13:20:27;;;;;;;1.87;1.77;;;17.30;99.90;;;;;;5063040;28;20491;-74
2024/03/14 13:22:54;;;;;;;2.17;2.07;;;17.30;99.90;;;;;;5051165;28;20463;-74
2024/03/14 13:25:22;;;;;;;2.83;2.73;;;17.30;99.90;;;;;;5064248;28;20475;-74
2024/03/14 13:27:49;;;;;;;1.80;1.70;;;17.20;99.90;;;;;;5058508;28;20470;-74
2024/03/14 13:30:19;;;;;;;2.83;2.60;;;17.20;99.90;;;;;;5045999;28;20528;-74
2024/03/14 13:32:47;;;;;;;2.70;2.63;;;17.20;99.90;;;;;;5074559;28;20474;-74
2024/03/14 13:35:21;;;;;;;2.00;2.00;;;17.20;99.90;;;;;;5044368;28;20551;-74
2024/03/14 13:37:48;;;;;;;1.73;1.73;;;17.10;99.90;;;;;;5048961;28;20469;-74
2024/03/14 13:40:16;;;;;;;3.10;2.90;;;17.10;99.90;;;;;;5049446;28;20456;-76
2024/03/14 13:42:43;;;;;;;2.97;2.80;;;17.20;99.90;;;;;;5061475;28;20471;-79
2024/03/14 13:45:16;;;;;;;2.17;2.07;;;17.10;99.90;;;;;;5059348;28;20470;-74
2024/03/14 13:47:45;;;;;;;2.23;2.23;;;17.20;99.90;;;;;;5045027;28;20550;-74
2024/03/14 13:50:13;;;;;;;2.87;2.67;;;17.10;99.90;;;;;;5053993;28;20468;-73
2024/03/14 13:52:40;;;;;;;3.10;2.90;;;17.00;99.90;;;;;;5070094;28;20503;-73
2024/03/14 13:55:24;;;;;;;5.30;2.60;;;17.00;99.90;;;;;;5054516;28;20532;-74
2024/03/14 13:57:52;;;;;;;2.43;2.33;;;17.10;99.90;;;;;;5070550;28;20490;-74
2024/03/14 14:00:25;;;;;;;3.33;3.07;;;17.10;99.90;;;;;;5060031;28;20473;-73
2024/03/14 14:02:56;;;;;;;3.23;3.03;;;17.00;99.90;;;;;;5056762;28;20459;-73
2024/03/14 14:05:25;;;;;;;5.20;3.53;;;17.10;99.90;;;;;;5053027;28;21033;-73
2024/03/14 14:07:55;;;;;;;2.33;2.23;;;17.10;99.90;;;;;;5072439;28;20460;-70
2024/03/14 14:10:22;;;;;;;3.87;2.10;;;16.90;99.90;;;;;;5061793;28;20460;-70
2024/03/14 14:12:50;;;;;;;3.37;3.07;;;16.80;99.90;;;;;;5074284;28;20549;-70
2024/03/14 14:15:18;;;;;;;2.10;2.10;;;16.60;99.90;;;;;;5046441;28;20467;-72
2024/03/14 14:17:45;;;;;;;2.03;2.03;;;16.50;99.90;;;;;;5056656;28;20940;-73
2024/03/14 14:20:14;;;;;;;2.90;2.70;;;16.40;99.90;;;;;;5045738;28;20459;-72
2024/03/14 14:22:42;;;;;;;1.87;1.87;;;16.20;99.90;;;;;;5070782;28;20465;-74
2024/03/14 14:25:11;;;;;;;2.73;2.63;;;16.20;99.90;;;;;;5050478;28;20470;-73
2024/03/14 14:27:39;;;;;;;3.00;2.80;;;16.10;99.90;;;;;;5058149;28;20460;-72
2024/03/14 14:30:09;;;;;;;2.37;2.27;;;16.10;99.90;;;;;;5061031;28;20843;-73
2024/03/14 14:32:37;;;;;;;2.90;2.80;;;16.00;99.90;;;;;;5045088;28;20464;-72
2024/03/14 14:35:08;;;;;;;4.47;1.90;;;16.10;99.90;;;;;;5061212;28;20861;-76
2024/03/14 14:37:35;;;;;;;1.80;1.80;;;16.20;99.90;;;;;;5067123;28;20609;-79
2024/03/14 14:40:03;;;;;;;1.77;1.67;;;16.30;99.90;;;;;;5056622;28;20981;-73
2024/03/14 14:42:30;;;;;;;2.13;2.07;;;16.30;99.90;;;;;;5065826;28;20463;-73
2024/03/14 14:44:57;;;;;;;2.83;2.63;;;16.40;99.90;;;;;;5066246;28;21033;-76
2024/03/14 14:47:24;;;;;;;2.43;2.33;;;16.40;99.90;;;;;;5076773;28;20895;-76
2024/03/14 14:49:51;;;;;;;2.60;2.50;;;16.30;99.90;;;;;;5058815;28;21063;-76
2024/03/14 14:52:18;;;;;;;3.03;2.83;;;16.40;99.90;;;;;;5067533;28;20465;-77
2024/03/14 14:54:45;;;;;;;3.00;2.80;;;16.40;99.90;;;;;;5069827;28;20491;-77
2024/03/14 14:57:12;;;;;;;2.70;2.60;;;16.40;99.90;;;;;;5059130;28;20582;-76
2024/03/14 14:59:40;;;;;;;3.80;1.57;;;16.30;99.90;;;;;;5058455;28;20495;-75
2024/03/14 15:02:07;;;;;;;2.50;2.40;;;16.30;99.90;;;;;;5044148;28;20468;-76
2024/03/14 15:04:34;;;;;;;1.90;1.90;;;16.20;99.90;;;;;;5059961;28;20484;-76
2024/03/14 15:07:01;;;;;;;2.50;2.40;;;16.20;99.90;;;;;;5055871;28;20496;-76
2024/03/14 15:09:28;;;;;;;2.60;2.40;;;16.20;99.90;;;;;;5052185;28;20510;-74
2024/03/14 15:11:55;;;;;;;5.97;2.30;;;16.30;99.90;;;;;;5047298;28;20502;-77
2024/03/14 15:14:22;;;;;;;2.33;2.23;;;16.40;99.90;;;;;;5057510;28;20489;-75
2024/03/14 15:16:53;;;;;;;2.17;2.07;;;16.50;99.90;;;;;;5049893;28;20850;-75
2024/03/14 15:19:20;;;;;;;2.43;2.20;;;16.50;99.90;;;;;;5063637;28;20821;-75
2024/03/14 15:21:48;;;;;;;2.47;2.17;;;16.50;99.90;;;;;;5068753;28;20467;-76
2024/03/14 15:24:18;;;;;;;2.40;2.20;;;16.50;99.90;;;;;;5056414;28;20593;-75
2024/03/14 15:26:46;;;;;;;3.93;3.40;;;16.50;99.90;;;;;;5046128;28;21029;-75
2024/03/14 15:29:16;;;;;;;3.13;2.93;;;16.50;99.90;;;;;;5060843;28;20463;-75
2024/03/14 15:31:43;;;;;;;2.40;2.30;;;16.50;99.90;;;;;;5060765;28;20528;-76
2024/03/14 15:34:10;;;;;;;50.10;8.57;;;16.40;99.90;;;;;;5062265;28;20490;-75
2024/03/14 15:36:37;;;;;;;3.20;2.60;;;16.40;99.90;;;;;;5054649;28;20579;-75
2024/03/14 15:39:04;;;;;;;3.80;2.53;;;16.40;99.90;;;;;;5034864;28;20480;-76
2024/03/14 15:41:31;;;;;;;2.47;2.27;;;16.40;99.90;;;;;;5035798;28;20532;-76
2024/03/14 15:43:58;;;;;;;2.20;2.10;;;16.40;99.90;;;;;;5037859;28;20473;-75
2024/03/14 15:46:26;;;;;;;2.93;2.73;;;16.40;99.90;;;;;;5048976;28;20512;-77
2024/03/14 15:48:55;;;;;;;2.70;2.43;;;16.40;99.90;;;;;;5075265;28;20456;-76
2024/03/14 15:51:22;;;;;;;2.40;2.40;;;16.40;99.90;;;;;;5065411;28;20547;-76
2024/03/14 15:53:49;;;;;;;2.27;2.07;;;16.40;99.90;;;;;;5074993;28;20987;-77
2024/03/14 15:56:17;;;;;;;5.50;2.00;;;16.40;99.90;;;;;;5066631;28;20820;-76
2024/03/14 15:58:44;;;;;;;4.50;2.27;;;16.50;99.90;;;;;;5037637;28;20456;-76
2024/03/14 16:01:13;;;;;;;2.33;2.03;;;16.50;99.90;;;;;;5057047;28;20451;-76
2024/03/14 16:03:41;;;;;;;2.60;2.50;;;16.40;99.90;;;;;;5074180;28;20473;-76
2024/03/14 16:06:08;;;;;;;2.30;2.13;;;16.30;99.90;;;;;;5055103;28;20983;-75
2024/03/14 16:08:41;;;;;;;2.07;2.00;;;16.30;99.90;;;;;;5041243;28;20552;-73
2024/03/14 16:11:08;;;;;;;5.43;2.33;;;16.20;99.90;;;;;;5077225;28;20458;-75
2024/03/14 16:13:35;;;;;;;2.50;1.87;;;16.20;99.90;;;;;;5060104;28;20516;-78
2024/03/14 16:16:03;;;;;;;3.20;2.10;;;16.10;99.90;;;;;;5052823;28;20829;-76
2024/03/14 16:18:34;;;;;;;3.13;2.93;;;16.00;99.90;;;;;;5065418;28;20567;-76
2024/03/14 16:21:02;;;;;;;2.30;2.20;;;16.00;99.90;;;;;;5074779;28;20466;-75
2024/03/14 16:23:30;;;;;;;3.80;2.70;;;15.90;99.90;;;;;;5044893;28;20483;-75
2024/03/14 16:25:57;;;;;;;2.67;2.47;;;15.90;99.90;;;;;;5052194;28;20452;-74
2024/03/14 16:28:25;;;;;;;3.10;2.90;;;15.80;99.90;;;;;;5055780;28;20460;-75
2024/03/14 16:30:53;;;;;;;2.30;2.20;;;15.80;99.90;;;;;;5079899;28;20468;-75
2024/03/14 16:33:21;;;;;;;2.10;2.00;;;15.70;99.90;;;;;;5071243;28;20479;-75
2024/03/14 16:35:48;;;;;;;3.70;2.73;;;15.60;99.90;;;;;;5063681;28;20511;-75
2024/03/14 16:38:15;;;;;;;2.83;2.63;;;15.60;99.90;;;;;;5065453;28;23862;-75
2024/03/14 16:40:42;;;;;;;3.00;2.80;;;15.50;99.90;;;;;;5063690;28;20974;-75
2024/03/14 16:43:11;;;;;;;2.63;2.43;;;15.40;99.90;;;;;;5052756;28;21041;-76
2024/03/14 16:45:38;;;;;;;2.93;2.60;;;15.40;99.90;;;;;;5057814;28;20500;-76
2024/03/14 16:48:05;;;;;;;2.73;2.60;;;15.30;99.90;;;;;;5063356;28;20468;-75
2024/03/14 16:50:33;;;;;;;2.60;2.40;;;15.30;99.90;;;;;;5052136;28;20488;-76
2024/03/14 16:53:00;;;;;;;4.70;3.53;;;15.30;99.90;;;;;;5060894;28;21056;-75
2024/03/14 16:55:27;;;;;;;3.30;3.10;;;15.20;99.90;;;;;;5063882;28;20867;-74
2024/03/14 16:57:54;;;;;;;2.93;2.77;;;15.20;99.90;;;;;;5069611;28;20514;-75
2024/03/14 17:00:22;;;;;;;4.70;3.03;;;15.10;99.90;;;;;;5046604;28;20528;-75
2024/03/14 17:02:49;;;;;;;9.60;4.10;;;15.10;99.90;;;;;;5070684;28;20994;-75
2024/03/14 17:05:19;;;;;;;3.77;2.87;;;15.00;99.90;;;;;;5060879;28;20541;-75
2024/03/14 17:07:46;;;;;;;4.40;3.90;;;15.00;99.90;;;;;;5044483;28;20468;-76
2024/03/14 17:10:14;;;;;;;4.10;3.73;;;14.90;99.90;;;;;;5054500;28;20490;-75
2024/03/14 17:12:41;;;;;;;3.60;3.30;;;14.80;99.90;;;;;;5047338;28;20499;-76
2024/03/14 17:15:08;;;;;;;3.20;2.97;;;14.80;99.90;;;;;;5058584;28;20460;-75
2024/03/14 17:17:37;;;;;;;3.30;3.10;;;14.70;99.90;;;;;;5047761;28;20495;-75
2024/03/14 17:20:05;;;;;;;4.10;3.70;;;14.70;99.90;;;;;;5073481;28;20536;-76
2024/03/14 17:22:32;;;;;;;3.83;3.40;;;14.60;99.90;;;;;;5070894;28;20502;-76
2024/03/14 17:24:59;;;;;;;4.63;3.50;;;14.60;99.90;;;;;;5070262;28;21005;-76
2024/03/14 17:27:28;;;;;;;3.50;3.30;;;14.50;99.90;;;;;;5077884;28;20467;-75
2024/03/14 17:29:54;;;;;;;3.30;3.00;;;14.50;99.90;;;;;;5074185;28;20469;-75
2024/03/14 17:32:22;;;;;;;3.33;3.23;;;14.40;99.90;;;;;;5057082;28;20487;-76
2024/03/14 17:34:49;;;;;;;3.87;3.57;;;14.30;99.90;;;;;;5075672;28;20523;-75
2024/03/14 17:37:16;;;;;;;3.60;3.37;;;14.30;99.90;;;;;;5047860;28;20964;-74
2024/03/14 17:39:44;;;;;;;4.00;3.80;;;14.20;99.90;;;;;;5060426;28;20464;-75
2024/03/14 17:42:11;;;;;;;3.43;3.20;;;14.20;99.90;;;;;;5052952;28;20469;-76
2024/03/14 17:44:38;;;;;;;3.30;3.00;;;14.10;99.90;;;;;;5072282;28;20483;-75
2024/03/14 17:47:05;;;;;;;4.70;4.30;;;14.10;99.90;;;;;;5052570;28;20467;-75